Aviation Digital Data Service (ADDS)

Output produced by TAFs form (0924 UTC 19 August 2017)
found at http://aviationweather.gov/adds/tafs/
 
KGJT 190824Z 1908/2006 11013KT P6SM SKC 
     FM191100 14007KT P6SM SKC 
     FM191900 23005KT P6SM FEW120 
     FM200200 36004KT P6SM SKC 
     FM200500 07004KT P6SM SKC